createdAt,value
2023-01-20T00:01:28.808Z,100.00
2023-01-20T00:03:58.819Z,100.00
2023-01-20T00:06:28.060Z,100.00
2023-01-20T00:08:58.494Z,100.00
2023-01-20T00:11:25.809Z,100.00
2023-01-20T00:13:57.253Z,100.00
2023-01-20T00:16:25.431Z,100.00
2023-01-20T00:18:53.338Z,100.00
2023-01-20T00:21:20.889Z,100.00
2023-01-20T00:23:49.117Z,100.00
2023-01-20T00:26:18.581Z,100.00
2023-01-20T00:28:46.990Z,100.00
2023-01-20T00:31:16.180Z,100.00
2023-01-20T00:33:44.508Z,100.00
2023-01-20T00:36:12.963Z,100.00
2023-01-20T00:38:40.625Z,100.00
2023-01-20T00:41:08.746Z,100.00
2023-01-20T00:43:36.823Z,100.00
2023-01-20T00:46:05.913Z,100.00
2023-01-20T00:48:33.544Z,100.00
2023-01-20T00:51:01.161Z,100.00
2023-01-20T00:53:28.557Z,100.00
2023-01-20T00:55:55.715Z,100.00
2023-01-20T00:58:22.753Z,100.00
2023-01-20T01:00:51.722Z,100.00
2023-01-20T01:03:19.068Z,100.00
2023-01-20T01:05:46.270Z,100.00
2023-01-20T01:08:14.062Z,100.00
2023-01-20T01:10:41.239Z,100.00
2023-01-20T01:13:09.028Z,100.00
2023-01-20T01:15:36.565Z,100.00
2023-01-20T01:18:03.992Z,100.00
2023-01-20T01:20:31.515Z,100.00
2023-01-20T01:22:59.341Z,100.00
2023-01-20T01:25:26.376Z,100.00
2023-01-20T01:27:53.485Z,100.00
2023-01-20T01:30:20.933Z,100.00
2023-01-20T01:32:48.097Z,100.00
2023-01-20T01:35:15.489Z,100.00
2023-01-20T01:37:43.082Z,100.00
2023-01-20T01:40:10.908Z,100.00
2023-01-20T01:42:38.297Z,100.00
2023-01-20T01:45:20.563Z,100.00
2023-01-20T01:47:53.162Z,100.00
2023-01-20T01:50:27.900Z,100.00
2023-01-20T01:52:56.884Z,100.00
2023-01-20T01:55:29.637Z,100.00
2023-01-20T01:57:59.748Z,100.00
2023-01-20T02:00:27.644Z,100.00
2023-01-20T02:02:56.858Z,100.00
2023-01-20T02:05:27.335Z,100.00
2023-01-20T02:07:55.454Z,100.00
2023-01-20T02:10:22.603Z,100.00
2023-01-20T02:12:51.787Z,100.00
2023-01-20T02:15:26.171Z,100.00
2023-01-20T02:18:22.903Z,100.00
2023-01-20T02:21:01.881Z,100.00
2023-01-20T02:23:44.622Z,100.00
2023-01-20T02:26:30.807Z,100.00
2023-01-20T02:28:58.344Z,100.00
2023-01-20T02:31:25.444Z,100.00
2023-01-20T02:34:11.269Z,100.00
2023-01-20T02:36:50.720Z,100.00
2023-01-20T02:39:28.990Z,100.00
2023-01-20T02:42:03.567Z,100.00
2023-01-20T02:44:42.739Z,100.00
2023-01-20T02:47:21.907Z,100.00
2023-01-20T02:50:04.360Z,100.00
2023-01-20T02:52:35.763Z,100.00
2023-01-20T02:55:08.355Z,100.00
2023-01-20T02:58:00.745Z,100.00
2023-01-20T03:00:35.093Z,100.00
2023-01-20T03:03:07.615Z,100.00
2023-01-20T03:05:40.224Z,100.00
2023-01-20T03:08:10.984Z,100.00
2023-01-20T03:10:40.147Z,100.00
2023-01-20T03:13:21.705Z,100.00
2023-01-20T03:16:10.620Z,100.00
2023-01-20T03:18:39.067Z,100.00
2023-01-20T03:21:08.859Z,100.00
2023-01-20T03:23:40.335Z,100.00
2023-01-20T03:26:10.437Z,100.00
2023-01-20T03:28:38.168Z,100.00
2023-01-20T03:31:13.137Z,100.00
2023-01-20T03:33:40.717Z,100.00
2023-01-20T03:36:08.416Z,100.00
2023-01-20T03:38:35.837Z,100.00
2023-01-20T03:41:31.126Z,100.00
2023-01-20T03:44:01.161Z,100.00
2023-01-20T03:46:40.348Z,100.00
2023-01-20T03:49:13.643Z,100.00
2023-01-20T03:52:13.128Z,100.00
2023-01-20T03:54:52.418Z,100.00
2023-01-20T03:57:28.322Z,100.00
2023-01-20T03:59:56.666Z,100.00
2023-01-20T04:02:27.920Z,100.00
2023-01-20T04:04:58.270Z,100.00
2023-01-20T04:07:26.581Z,100.00
2023-01-20T04:10:01.370Z,100.00
2023-01-20T04:12:29.123Z,100.00
2023-01-20T04:14:56.284Z,100.00
2023-01-20T04:17:28.235Z,100.00
2023-01-20T04:19:56.617Z,100.00
2023-01-20T04:22:33.174Z,100.00
2023-01-20T04:25:38.835Z,100.00
2023-01-20T04:28:05.726Z,100.00
2023-01-20T04:30:33.381Z,100.00
2023-01-20T04:33:00.455Z,100.00
2023-01-20T04:35:27.557Z,100.00
2023-01-20T04:37:54.849Z,100.00
2023-01-20T04:40:21.976Z,100.00
2023-01-20T04:42:49.035Z,100.00
2023-01-20T04:45:17.559Z,100.00
2023-01-20T04:47:45.410Z,100.00
2023-01-20T04:50:13.933Z,100.00
2023-01-20T04:52:41.492Z,100.00
2023-01-20T04:55:09.147Z,100.00
2023-01-20T04:57:36.202Z,100.00
2023-01-20T05:00:04.987Z,100.00
2023-01-20T05:02:32.102Z,100.00
2023-01-20T05:04:59.143Z,100.00
2023-01-20T05:07:26.447Z,100.00
2023-01-20T05:09:53.529Z,100.00
2023-01-20T05:12:20.569Z,100.00
2023-01-20T05:14:47.889Z,100.00
2023-01-20T05:17:14.899Z,100.00
2023-01-20T05:19:43.654Z,100.00
2023-01-20T05:22:11.251Z,100.00
2023-01-20T05:24:38.758Z,100.00
2023-01-20T05:27:05.994Z,100.00
2023-01-20T05:29:33.527Z,100.00
2023-01-20T05:32:00.751Z,100.00
2023-01-20T05:34:27.900Z,100.00
2023-01-20T05:36:55.311Z,100.00
2023-01-20T05:39:22.504Z,100.00
2023-01-20T05:41:49.658Z,100.00
2023-01-20T05:44:17.177Z,100.00
2023-01-20T05:46:44.623Z,100.00
2023-01-20T05:49:14.859Z,100.00
2023-01-20T05:51:42.170Z,100.00
2023-01-20T05:54:09.221Z,100.00
2023-01-20T05:56:36.303Z,100.00
2023-01-20T05:59:04.786Z,100.00
2023-01-20T06:01:31.860Z,100.00
2023-01-20T06:03:59.245Z,100.00
2023-01-20T06:06:26.373Z,100.00
2023-01-20T06:08:53.509Z,100.00
2023-01-20T06:11:20.993Z,100.00
2023-01-20T06:13:48.928Z,100.00
2023-01-20T06:16:20.095Z,100.00
2023-01-20T06:18:47.537Z,100.00
2023-01-20T06:21:14.637Z,100.00
2023-01-20T06:23:41.897Z,100.00
2023-01-20T06:26:12.796Z,100.00
2023-01-20T06:28:40.079Z,100.00
2023-01-20T06:31:10.323Z,100.00
2023-01-20T06:33:37.981Z,100.00
2023-01-20T06:36:06.218Z,100.00
2023-01-20T06:38:36.886Z,100.00
2023-01-20T06:41:06.971Z,100.00
2023-01-20T06:43:35.347Z,100.00
2023-01-20T06:46:07.507Z,100.00
2023-01-20T06:48:35.002Z,100.00
2023-01-20T06:51:13.714Z,100.00
2023-01-20T06:53:41.285Z,100.00
2023-01-20T06:56:11.097Z,100.00
2023-01-20T06:58:38.422Z,100.00
2023-01-20T07:01:13.024Z,100.00
2023-01-20T07:03:45.124Z,100.00
2023-01-20T07:06:38.321Z,100.00
2023-01-20T07:09:07.541Z,100.00
2023-01-20T07:11:35.860Z,100.00
2023-01-20T07:14:04.124Z,100.00
2023-01-20T07:16:31.279Z,100.00
2023-01-20T07:18:58.785Z,100.00
2023-01-20T07:21:26.646Z,100.00
2023-01-20T07:23:53.890Z,100.00
2023-01-20T07:26:24.411Z,100.00
2023-01-20T07:28:52.183Z,100.00
2023-01-20T07:31:23.406Z,100.00
2023-01-20T07:33:51.474Z,100.00
2023-01-20T07:36:18.737Z,100.00
2023-01-20T07:38:53.341Z,100.00
2023-01-20T07:41:21.670Z,100.00
2023-01-20T07:43:51.905Z,100.00
2023-01-20T07:46:20.521Z,100.00
2023-01-20T07:48:47.962Z,100.00
2023-01-20T07:51:16.124Z,100.00
2023-01-20T07:53:48.258Z,100.00
2023-01-20T07:56:24.213Z,100.00
2023-01-20T07:58:52.284Z,100.00
2023-01-20T08:01:29.197Z,100.00
2023-01-20T08:03:57.915Z,100.00
2023-01-20T08:06:26.402Z,100.00
2023-01-20T08:08:54.719Z,100.00
2023-01-20T08:11:22.983Z,100.00
2023-01-20T08:13:50.577Z,100.00
2023-01-20T08:16:19.105Z,100.00
2023-01-20T08:18:47.176Z,100.00
2023-01-20T08:21:21.814Z,100.00
2023-01-20T08:23:50.274Z,100.00
2023-01-20T08:26:17.770Z,100.00
2023-01-20T08:28:44.820Z,100.00
2023-01-20T08:31:15.734Z,100.00
2023-01-20T08:33:44.260Z,100.00
2023-01-20T08:36:21.324Z,100.00
2023-01-20T08:38:49.219Z,100.00
2023-01-20T08:41:19.684Z,100.00
2023-01-20T08:43:47.036Z,100.00
2023-01-20T08:46:15.867Z,100.00
2023-01-20T08:48:43.953Z,100.00
2023-01-20T08:51:18.283Z,100.00
2023-01-20T08:53:45.883Z,100.00
2023-01-20T08:56:14.087Z,100.00
2023-01-20T08:58:41.512Z,100.00
2023-01-20T09:01:18.534Z,100.00
2023-01-20T09:04:03.036Z,100.00
2023-01-20T09:06:42.034Z,100.00
2023-01-20T09:09:09.806Z,100.00
2023-01-20T09:11:38.705Z,100.00
2023-01-20T09:14:05.915Z,100.00
2023-01-20T09:16:33.052Z,100.00
2023-01-20T09:19:00.450Z,100.00
2023-01-20T09:21:27.597Z,100.00
2023-01-20T09:23:54.737Z,100.00
2023-01-20T09:26:34.939Z,100.00
2023-01-20T09:29:09.356Z,100.00
2023-01-20T09:31:44.336Z,100.00
2023-01-20T09:34:19.655Z,100.00
2023-01-20T09:36:55.188Z,100.00
2023-01-20T09:39:45.275Z,100.00
2023-01-20T09:42:57.549Z,100.00
2023-01-20T09:45:44.505Z,100.00
2023-01-20T09:48:37.463Z,100.00
2023-01-20T09:51:32.609Z,100.00
2023-01-20T09:54:08.669Z,100.00
2023-01-20T09:56:43.693Z,100.00
2023-01-20T09:59:22.933Z,100.00
2023-01-20T10:01:56.872Z,100.00
2023-01-20T10:04:33.193Z,100.00
2023-01-20T10:07:13.088Z,100.00
2023-01-20T10:09:46.505Z,100.00
2023-01-20T10:12:35.029Z,100.00
2023-01-20T10:15:24.742Z,100.00
2023-01-20T10:18:04.379Z,100.00
2023-01-20T10:20:53.335Z,100.00
2023-01-20T10:23:56.881Z,100.00
2023-01-20T10:26:47.681Z,100.00
2023-01-20T10:29:39.045Z,100.00
2023-01-20T10:32:16.184Z,100.00
2023-01-20T10:34:47.985Z,99.46
2023-01-20T10:37:15.590Z,99.98
2023-01-20T10:39:46.771Z,100.00
2023-01-20T10:42:16.944Z,99.09
2023-01-20T10:44:45.581Z,99.17
2023-01-20T10:47:40.947Z,99.33
2023-01-20T10:50:17.417Z,98.91
2023-01-20T10:53:03.470Z,99.19
2023-01-20T10:56:08.948Z,100.00
2023-01-20T10:58:36.784Z,99.52
2023-01-20T11:01:10.333Z,99.96
2023-01-20T11:03:41.092Z,99.96
2023-01-20T11:06:19.259Z,99.04
2023-01-20T11:08:47.153Z,99.21
2023-01-20T11:11:25.284Z,99.46
2023-01-20T11:13:53.319Z,97.98
2023-01-20T11:16:26.473Z,98.70
2023-01-20T11:19:11.883Z,99.19
2023-01-20T11:21:40.240Z,99.86
2023-01-20T11:24:42.505Z,100.00
2023-01-20T11:27:21.388Z,100.00
2023-01-20T11:29:57.054Z,100.00
2023-01-20T11:32:33.419Z,100.00
2023-01-20T11:35:02.182Z,100.00
2023-01-20T11:37:38.849Z,100.00
2023-01-20T11:40:22.645Z,100.00
2023-01-20T11:42:51.957Z,100.00
2023-01-20T11:45:26.459Z,100.00
2023-01-20T11:48:16.158Z,100.00
2023-01-20T11:50:54.823Z,100.00
2023-01-20T11:53:28.665Z,100.00
2023-01-20T11:55:59.920Z,100.00
2023-01-20T11:58:58.453Z,100.00
2023-01-20T12:01:29.145Z,100.00
2023-01-20T12:04:48.167Z,100.00
2023-01-20T12:07:21.143Z,100.00
2023-01-20T12:09:53.917Z,100.00
2023-01-20T12:12:48.756Z,99.50
2023-01-20T12:15:40.275Z,99.45
2023-01-20T12:18:19.155Z,100.00
2023-01-20T12:20:55.961Z,100.00
2023-01-20T12:23:23.081Z,100.00
2023-01-20T12:25:56.790Z,100.00
2023-01-20T12:28:39.058Z,100.00
2023-01-20T12:31:09.604Z,100.00
2023-01-20T12:33:43.721Z,100.00
2023-01-20T12:36:30.970Z,100.00
2023-01-20T12:39:43.285Z,100.00
2023-01-20T12:42:20.265Z,100.00
2023-01-20T12:45:16.897Z,100.00
2023-01-20T12:47:46.930Z,100.00
2023-01-20T12:50:32.709Z,100.00
2023-01-20T12:53:25.443Z,100.00
2023-01-20T12:56:14.872Z,100.00
2023-01-20T12:59:08.432Z,100.00
2023-01-20T13:01:48.938Z,100.00
2023-01-20T13:05:00.941Z,100.00
2023-01-20T13:08:09.901Z,100.00
2023-01-20T13:10:51.300Z,100.00
2023-01-20T13:13:55.949Z,100.00
2023-01-20T13:16:36.030Z,100.00
2023-01-20T13:19:20.006Z,100.00
2023-01-20T13:22:06.494Z,100.00
2023-01-20T13:24:34.771Z,100.00
2023-01-20T13:27:02.944Z,100.00
2023-01-20T13:29:35.955Z,100.00
2023-01-20T13:32:04.969Z,100.00
2023-01-20T13:34:34.193Z,100.00
2023-01-20T13:37:04.673Z,100.00
2023-01-20T13:39:39.779Z,100.00
2023-01-20T13:42:38.088Z,100.00
2023-01-20T13:45:11.553Z,100.00
2023-01-20T13:47:57.420Z,100.00
2023-01-20T13:50:42.231Z,100.00
2023-01-20T13:53:15.140Z,100.00
2023-01-20T13:55:45.248Z,100.00
2023-01-20T13:58:27.399Z,100.00
2023-01-20T14:00:58.103Z,100.00
2023-01-20T14:03:31.623Z,100.00
2023-01-20T14:06:00.122Z,100.00
2023-01-20T14:08:38.382Z,100.00
2023-01-20T14:11:15.478Z,100.00
2023-01-20T14:13:51.156Z,100.00
2023-01-20T14:16:39.561Z,100.00
2023-01-20T14:19:19.305Z,100.00
2023-01-20T14:21:51.635Z,100.00
2023-01-20T14:24:33.844Z,100.00
2023-01-20T14:27:45.928Z,100.00
2023-01-20T14:30:20.696Z,100.00
2023-01-20T14:32:47.851Z,100.00
2023-01-20T14:35:27.451Z,100.00
2023-01-20T14:37:54.989Z,100.00
2023-01-20T14:40:25.401Z,100.00
2023-01-20T14:43:03.991Z,100.00
2023-01-20T14:45:32.946Z,100.00
2023-01-20T14:48:02.450Z,100.00
2023-01-20T14:50:30.171Z,100.00
2023-01-20T14:52:57.936Z,100.00
2023-01-20T14:55:35.608Z,100.00
2023-01-20T14:58:32.470Z,100.00
2023-01-20T15:01:05.749Z,100.00
2023-01-20T15:03:33.284Z,100.00
2023-01-20T15:06:19.732Z,100.00
2023-01-20T15:09:05.225Z,100.00
2023-01-20T15:11:34.371Z,100.00
2023-01-20T15:14:01.656Z,100.00
2023-01-20T15:16:46.669Z,100.00
2023-01-20T15:19:16.978Z,100.00
2023-01-20T15:21:51.684Z,100.00
2023-01-20T15:24:20.485Z,100.00
2023-01-20T15:26:51.146Z,100.00
2023-01-20T15:29:24.571Z,100.00
2023-01-20T15:31:52.515Z,100.00
2023-01-20T15:34:21.207Z,100.00
2023-01-20T15:36:50.228Z,100.00
2023-01-20T15:39:19.513Z,100.00
2023-01-20T15:41:48.708Z,100.00
2023-01-20T15:44:15.856Z,100.00
2023-01-20T15:46:42.899Z,100.00
2023-01-20T15:49:11.436Z,100.00
2023-01-20T15:51:39.088Z,100.00
2023-01-20T15:54:07.456Z,100.00
2023-01-20T15:56:38.259Z,100.00
2023-01-20T15:59:13.359Z,100.00
2023-01-20T16:01:40.805Z,100.00
2023-01-20T16:04:09.384Z,100.00
2023-01-20T16:06:37.584Z,100.00
2023-01-20T16:09:19.499Z,100.00
2023-01-20T16:11:47.611Z,100.00
2023-01-20T16:14:15.051Z,100.00
2023-01-20T16:16:42.158Z,100.00
2023-01-20T16:19:16.025Z,100.00
2023-01-20T16:21:45.387Z,100.00
2023-01-20T16:24:13.103Z,100.00
2023-01-20T16:26:40.637Z,100.00
2023-01-20T16:29:09.481Z,100.00
2023-01-20T16:31:37.130Z,100.00
2023-01-20T16:34:05.055Z,100.00
2023-01-20T16:36:32.202Z,100.00
2023-01-20T16:38:59.543Z,100.00
2023-01-20T16:41:29.395Z,100.00
2023-01-20T16:43:58.306Z,100.00
2023-01-20T16:46:28.268Z,100.00
2023-01-20T16:49:03.395Z,100.00
2023-01-20T16:51:31.395Z,100.00
2023-01-20T16:53:59.276Z,100.00
2023-01-20T16:56:28.608Z,100.00
2023-01-20T16:58:57.898Z,100.00
2023-01-20T17:01:26.148Z,100.00
2023-01-20T17:04:01.247Z,100.00
2023-01-20T17:06:32.276Z,100.00
2023-01-20T17:09:02.130Z,100.00
2023-01-20T17:11:35.051Z,100.00
2023-01-20T17:14:04.460Z,100.00
2023-01-20T17:16:32.509Z,100.00
2023-01-20T17:19:00.774Z,100.00
2023-01-20T17:21:29.894Z,100.00
2023-01-20T17:24:00.306Z,100.00
2023-01-20T17:26:27.931Z,100.00
2023-01-20T17:28:59.932Z,100.00
2023-01-20T17:31:28.388Z,100.00
2023-01-20T17:33:55.691Z,100.00
2023-01-20T17:36:22.948Z,100.00
2023-01-20T17:38:50.337Z,100.00
2023-01-20T17:41:17.390Z,100.00
2023-01-20T17:43:47.842Z,100.00
2023-01-20T17:46:16.499Z,100.00
2023-01-20T17:48:44.996Z,100.00
2023-01-20T17:51:14.553Z,100.00
2023-01-20T17:53:42.852Z,100.00
2023-01-20T17:56:13.261Z,100.00
2023-01-20T17:58:42.809Z,100.00
2023-01-20T18:01:18.888Z,100.00
2023-01-20T18:03:48.017Z,100.00
2023-01-20T18:06:17.585Z,100.00
2023-01-20T18:08:49.482Z,100.00
2023-01-20T18:11:19.183Z,100.00
2023-01-20T18:13:47.894Z,100.00
2023-01-20T18:16:16.720Z,100.00
2023-01-20T18:18:45.810Z,100.00
2023-01-20T18:21:14.679Z,100.00
2023-01-20T18:23:43.151Z,100.00
2023-01-20T18:26:11.753Z,100.00
2023-01-20T18:28:38.768Z,100.00
2023-01-20T18:31:14.847Z,100.00
2023-01-20T18:33:48.774Z,100.00
2023-01-20T18:36:20.011Z,100.00
2023-01-20T18:39:01.748Z,100.00
2023-01-20T18:41:31.792Z,100.00
2023-01-20T18:43:59.452Z,100.00
2023-01-20T18:46:27.587Z,100.00
2023-01-20T18:48:55.400Z,100.00
2023-01-20T18:51:26.340Z,100.00
2023-01-20T18:53:58.148Z,100.00
2023-01-20T18:56:26.972Z,100.00
2023-01-20T18:58:55.125Z,100.00
2023-01-20T19:01:32.478Z,100.00
2023-01-20T19:04:01.595Z,100.00
2023-01-20T19:06:31.055Z,100.00
2023-01-20T19:08:59.245Z,100.00
2023-01-20T19:11:29.349Z,100.00
2023-01-20T19:13:56.358Z,100.00
2023-01-20T19:16:26.136Z,100.00
2023-01-20T19:18:58.648Z,100.00
2023-01-20T19:21:26.050Z,100.00
2023-01-20T19:23:56.350Z,100.00
2023-01-20T19:26:25.196Z,100.00
2023-01-20T19:28:58.575Z,100.00
2023-01-20T19:31:26.319Z,100.00
2023-01-20T19:33:53.461Z,100.00
2023-01-20T19:36:21.688Z,100.00
2023-01-20T19:38:49.503Z,100.00
2023-01-20T19:41:20.170Z,100.00
2023-01-20T19:43:47.636Z,100.00
2023-01-20T19:46:18.720Z,100.00
2023-01-20T19:48:46.040Z,100.00
2023-01-20T19:51:16.580Z,100.00
2023-01-20T19:53:44.233Z,100.00
2023-01-20T19:56:17.365Z,100.00
2023-01-20T19:58:48.655Z,100.00
2023-01-20T20:01:22.139Z,100.00
2023-01-20T20:03:51.273Z,100.00
2023-01-20T20:06:29.989Z,100.00
2023-01-20T20:09:00.026Z,100.00
2023-01-20T20:11:28.112Z,100.00
2023-01-20T20:14:00.401Z,100.00
2023-01-20T20:16:31.227Z,100.00
2023-01-20T20:18:59.482Z,100.00
2023-01-20T20:21:27.673Z,100.00
2023-01-20T20:23:57.464Z,100.00
2023-01-20T20:26:27.615Z,100.00
2023-01-20T20:28:55.483Z,100.00
2023-01-20T20:31:28.826Z,100.00
2023-01-20T20:33:58.264Z,100.00
2023-01-20T20:36:28.444Z,100.00
2023-01-20T20:38:58.313Z,100.00
2023-01-20T20:41:28.913Z,100.00
2023-01-20T20:43:57.160Z,100.00
2023-01-20T20:46:25.216Z,100.00
2023-01-20T20:48:59.304Z,100.00
2023-01-20T20:51:28.033Z,100.00
2023-01-20T20:53:56.619Z,100.00
2023-01-20T20:56:24.921Z,100.00
2023-01-20T20:59:01.466Z,100.00
2023-01-20T21:01:32.729Z,100.00
2023-01-20T21:04:00.693Z,100.00
2023-01-20T21:06:28.974Z,100.00
2023-01-20T21:08:57.043Z,100.00
2023-01-20T21:11:24.932Z,100.00
2023-01-20T21:13:52.662Z,100.00
2023-01-20T21:16:22.728Z,100.00
2023-01-20T21:18:52.197Z,100.00
2023-01-20T21:21:20.870Z,100.00
2023-01-20T21:23:54.706Z,100.00
2023-01-20T21:26:23.144Z,100.00
2023-01-20T21:28:50.899Z,100.00
2023-01-20T21:31:23.285Z,100.00
2023-01-20T21:33:58.255Z,100.00
2023-01-20T21:36:26.609Z,100.00
2023-01-20T21:38:54.534Z,100.00
2023-01-20T21:41:21.978Z,100.00
2023-01-20T21:44:08.622Z,100.00
2023-01-20T21:46:39.306Z,100.00
2023-01-20T21:49:28.922Z,100.00
2023-01-20T21:52:15.429Z,100.00
2023-01-20T21:54:45.037Z,100.00
2023-01-20T21:57:13.956Z,100.00
2023-01-20T21:59:41.100Z,100.00
2023-01-20T22:02:08.398Z,100.00
2023-01-20T22:04:35.717Z,100.00
2023-01-20T22:07:02.886Z,100.00
2023-01-20T22:09:29.898Z,100.00
2023-01-20T22:11:57.477Z,100.00
2023-01-20T22:14:24.697Z,100.00
2023-01-20T22:16:51.722Z,100.00
2023-01-20T22:19:19.180Z,100.00
2023-01-20T22:21:49.455Z,100.00
2023-01-20T22:24:16.679Z,100.00
2023-01-20T22:26:51.171Z,100.00
2023-01-20T22:29:18.403Z,100.00
2023-01-20T22:31:46.781Z,100.00
2023-01-20T22:34:13.857Z,100.00
2023-01-20T22:36:40.941Z,100.00
2023-01-20T22:39:11.830Z,100.00
2023-01-20T22:41:39.590Z,100.00
2023-01-20T22:44:06.825Z,100.00
2023-01-20T22:46:34.363Z,100.00
2023-01-20T22:49:01.409Z,100.00
2023-01-20T22:51:30.240Z,100.00
2023-01-20T22:53:59.803Z,100.00
2023-01-20T22:56:29.843Z,100.00
2023-01-20T22:58:57.818Z,100.00
2023-01-20T23:01:31.428Z,100.00
2023-01-20T23:04:00.997Z,100.00
2023-01-20T23:06:32.632Z,100.00
2023-01-20T23:09:02.241Z,100.00
2023-01-20T23:11:29.964Z,100.00
2023-01-20T23:13:57.039Z,100.00
2023-01-20T23:16:24.463Z,100.00
2023-01-20T23:18:52.424Z,100.00
2023-01-20T23:21:20.976Z,100.00
2023-01-20T23:23:54.295Z,100.00
2023-01-20T23:26:24.439Z,100.00
2023-01-20T23:28:53.448Z,100.00
2023-01-20T23:31:22.017Z,100.00
2023-01-20T23:33:50.401Z,100.00
2023-01-20T23:36:19.979Z,100.00
2023-01-20T23:38:48.011Z,100.00
2023-01-20T23:41:16.323Z,100.00
2023-01-20T23:43:43.600Z,100.00
2023-01-20T23:46:11.541Z,100.00
2023-01-20T23:48:39.373Z,100.00
2023-01-20T23:51:06.988Z,100.00
2023-01-20T23:53:38.398Z,100.00
2023-01-20T23:56:10.917Z,100.00
2023-01-20T23:58:38.076Z,100.00
